Time;durP1;ratioP1;P1;durP2;ratioP2;P2;SDS_P1;SDS_P2;PMS_P1;PMS_P2;Temp;Humidity;BMP_temperature;BMP_pressure;BME280_temperature;BME280_humidity;BME280_pressure;Samples;Min_cycle;Max_cycle;Signal;HPM_P1;HPM_P2
2022/03/05 16:27:19;;;;;;;6.90;3.70;;;1.00;95.70;;;;;;5129390;27;20116;-75
2022/03/05 16:29:45;;;;;;;7.38;3.60;;;0.80;97.20;;;;;;5090806;28;20128;-73
2022/03/05 16:32:11;;;;;;;5.45;3.25;;;0.90;99.60;;;;;;5108766;28;20040;-74
2022/03/05 16:34:36;;;;;;;6.22;3.70;;;1.00;99.90;;;;;;5108528;28;20038;-75
2022/03/05 16:37:02;;;;;;;6.35;3.90;;;1.00;99.90;;;;;;5090670;28;20032;-75
2022/03/05 16:39:28;;;;;;;7.38;4.25;;;1.10;99.90;;;;;;5090143;28;20032;-73
2022/03/05 16:41:54;;;;;;;7.63;4.07;;;1.20;99.90;;;;;;5108742;28;20285;-74
2022/03/05 16:44:20;;;;;;;7.35;4.35;;;1.30;99.90;;;;;;5108973;28;20457;-74
2022/03/05 16:46:46;;;;;;;7.97;4.20;;;1.30;99.90;;;;;;5108527;28;20067;-74
2022/03/05 16:49:14;;;;;;;6.72;4.40;;;1.40;99.90;;;;;;5090174;28;20038;-77
2022/03/05 16:51:40;;;;;;;7.22;4.43;;;1.40;99.90;;;;;;5089023;28;20457;-74
2022/03/05 16:54:08;;;;;;;6.97;4.07;;;1.50;99.90;;;;;;5088984;28;20366;-74
2022/03/05 16:56:34;;;;;;;7.72;4.20;;;1.50;99.90;;;;;;5087966;28;20028;-74
2022/03/05 16:59:00;;;;;;;7.45;4.28;;;1.50;99.90;;;;;;5098364;28;20449;-76
2022/03/05 17:01:28;;;;;;;8.23;4.18;;;1.50;99.90;;;;;;5070802;28;20025;-77
2022/03/05 17:03:54;;;;;;;6.93;4.10;;;1.50;99.90;;;;;;5069881;28;20024;-74
2022/03/05 17:06:20;;;;;;;8.30;4.63;;;1.50;99.90;;;;;;5069458;28;20032;-74
2022/03/05 17:08:46;;;;;;;6.50;3.88;;;1.50;99.90;;;;;;5087536;28;20043;-73
2022/03/05 17:11:12;;;;;;;7.45;4.22;;;1.50;99.90;;;;;;5087838;28;20107;-74
2022/03/05 17:13:37;;;;;;;6.53;3.72;;;1.50;99.90;;;;;;5087748;28;20481;-74
2022/03/05 17:16:03;;;;;;;6.68;3.97;;;1.50;99.90;;;;;;5069567;28;20109;-73
2022/03/05 17:18:29;;;;;;;8.18;4.05;;;1.50;99.90;;;;;;5086939;28;20031;-76
2022/03/05 17:20:58;;;;;;;8.32;4.15;;;1.50;99.90;;;;;;5087395;28;20039;-78
2022/03/05 17:23:24;;;;;;;7.60;4.13;;;1.50;99.90;;;;;;5069778;28;20042;-78
2022/03/05 17:25:59;;;;;;;6.28;3.42;;;1.50;99.90;;;;;;5079545;28;20131;-83
2022/03/05 17:28:25;;;;;;;6.53;3.53;;;1.50;99.90;;;;;;5049325;28;20458;-78
2022/03/05 17:30:50;;;;;;;6.53;3.88;;;1.60;99.90;;;;;;5067347;28;20462;-76
2022/03/05 17:33:16;;;;;;;5.47;3.38;;;1.60;99.50;;;;;;5066590;28;20032;-75
2022/03/05 17:35:42;;;;;;;5.65;3.50;;;1.60;99.10;;;;;;5067085;28;20058;-73
2022/03/05 17:38:08;;;;;;;6.03;3.38;;;1.60;99.40;;;;;;5056885;28;20096;-74
2022/03/05 17:40:35;;;;;;;5.32;3.40;;;1.70;99.30;;;;;;5035624;28;20371;-75
2022/03/05 17:43:01;;;;;;;6.40;3.28;;;1.70;98.90;;;;;;5054180;28;20029;-75
2022/03/05 17:45:27;;;;;;;5.50;3.65;;;1.70;98.90;;;;;;5035454;28;20382;-75
2022/03/05 17:47:55;;;;;;;6.47;3.92;;;1.70;98.50;;;;;;5036064;28;20029;-75
2022/03/05 17:50:23;;;;;;;5.72;3.58;;;1.60;98.00;;;;;;5035868;28;20052;-74
2022/03/05 17:52:49;;;;;;;5.13;3.35;;;1.70;98.30;;;;;;5036007;28;20021;-76
2022/03/05 17:55:17;;;;;;;6.68;3.90;;;1.60;97.90;;;;;;5053738;28;20057;-75
2022/03/05 17:57:43;;;;;;;5.97;3.40;;;1.60;97.90;;;;;;5053037;28;20474;-76
2022/03/05 18:00:12;;;;;;;6.65;3.78;;;1.60;97.90;;;;;;5052201;28;20123;-74
2022/03/05 18:02:38;;;;;;;6.85;3.85;;;1.50;97.10;;;;;;5050771;28;20116;-74
2022/03/05 18:05:05;;;;;;;9.95;5.00;;;1.50;96.70;;;;;;5051776;28;20458;-76
2022/03/05 18:07:31;;;;;;;10.05;5.80;;;1.40;96.60;;;;;;5053438;28;20044;-77
2022/03/05 18:09:59;;;;;;;10.18;5.28;;;1.40;96.80;;;;;;5018912;28;20536;-75
2022/03/05 18:12:25;;;;;;;8.73;4.63;;;1.40;96.80;;;;;;5053066;28;20063;-77
2022/03/05 18:14:51;;;;;;;7.65;4.50;;;1.30;96.70;;;;;;5035255;28;20029;-74
2022/03/05 18:17:16;;;;;;;6.40;3.90;;;1.30;97.00;;;;;;5035365;28;20036;-75
2022/03/05 18:19:42;;;;;;;7.35;4.30;;;1.30;96.90;;;;;;5034821;28;20142;-75
2022/03/05 18:22:10;;;;;;;9.50;3.95;;;1.30;96.30;;;;;;5053364;28;20137;-76
2022/03/05 18:24:37;;;;;;;8.00;4.18;;;1.30;96.00;;;;;;5034451;28;20029;-74
2022/03/05 18:27:05;;;;;;;7.80;4.20;;;1.20;96.70;;;;;;5046538;28;20057;-75
2022/03/05 18:29:33;;;;;;;7.78;3.95;;;1.20;96.70;;;;;;5026535;28;20043;-75
2022/03/05 18:32:00;;;;;;;8.02;3.95;;;1.20;96.60;;;;;;5027144;28;20021;-73
2022/03/05 18:34:26;;;;;;;6.47;3.80;;;1.20;96.60;;;;;;5026403;28;20036;-75
2022/03/05 18:36:52;;;;;;;7.47;4.22;;;1.20;96.60;;;;;;5040626;28;20033;-75
2022/03/05 18:39:21;;;;;;;8.98;4.25;;;1.10;96.60;;;;;;5026037;28;20028;-75
2022/03/05 18:41:47;;;;;;;7.72;4.68;;;1.10;96.30;;;;;;5024839;28;20021;-75
2022/03/05 18:44:13;;;;;;;7.47;4.22;;;1.10;96.50;;;;;;5041605;28;20032;-76
2022/03/05 18:46:39;;;;;;;8.23;4.50;;;1.10;96.40;;;;;;5027989;28;20038;-73
2022/03/05 18:49:06;;;;;;;8.82;4.28;;;1.10;96.40;;;;;;5026212;28;20045;-76
2022/03/05 18:51:34;;;;;;;9.07;5.05;;;1.10;96.10;;;;;;5026027;28;20032;-75
2022/03/05 18:54:01;;;;;;;8.20;4.63;;;1.00;95.90;;;;;;5023296;28;20034;-75
2022/03/05 18:56:27;;;;;;;6.97;3.97;;;1.00;96.00;;;;;;5023306;28;20022;-76
2022/03/05 18:58:56;;;;;;;7.35;4.22;;;1.00;96.20;;;;;;5010289;28;20029;-75
2022/03/05 19:01:22;;;;;;;7.57;4.18;;;1.00;96.30;;;;;;5042959;28;20112;-76
2022/03/05 19:03:49;;;;;;;7.85;4.25;;;1.00;96.30;;;;;;5023113;28;20022;-73
2022/03/05 19:06:15;;;;;;;9.05;4.45;;;1.00;96.30;;;;;;5026064;28;20040;-76
2022/03/05 19:08:41;;;;;;;7.22;4.25;;;1.00;96.10;;;;;;5044136;28;20433;-75
2022/03/05 19:11:07;;;;;;;6.50;3.95;;;1.00;96.20;;;;;;5025251;28;20025;-74
2022/03/05 19:13:33;;;;;;;7.35;4.15;;;1.10;96.30;;;;;;5040173;28;20060;-76
2022/03/05 19:15:59;;;;;;;7.38;4.18;;;1.10;96.50;;;;;;5025313;28;20461;-76
2022/03/05 19:18:25;;;;;;;6.97;3.72;;;1.00;96.60;;;;;;5025751;28;20021;-75
2022/03/05 19:20:52;;;;;;;7.22;3.83;;;1.00;96.50;;;;;;5028769;28;20036;-77
2022/03/05 19:23:18;;;;;;;7.72;4.15;;;1.00;96.30;;;;;;5025602;28;20034;-76
2022/03/05 19:25:46;;;;;;;7.28;3.60;;;1.10;96.30;;;;;;5036463;28;20143;-77
2022/03/05 19:28:13;;;;;;;8.18;4.32;;;1.00;96.30;;;;;;5061939;28;20025;-76
2022/03/05 19:30:39;;;;;;;6.50;4.20;;;1.00;96.00;;;;;;5061400;28;21303;-75
2022/03/05 19:33:05;;;;;;;7.70;4.25;;;1.00;96.50;;;;;;5060501;28;20028;-76
2022/03/05 19:35:32;;;;;;;6.13;3.63;;;1.10;96.50;;;;;;5061580;28;20024;-74
2022/03/05 19:38:04;;;;;;;7.30;3.75;;;1.10;96.60;;;;;;5062988;28;20091;-74
2022/03/05 19:40:34;;;;;;;6.75;3.70;;;1.10;96.80;;;;;;5060719;28;20021;-79
2022/03/05 19:43:03;;;;;;;8.05;3.85;;;1.10;96.70;;;;;;5061342;28;20029;-75
2022/03/05 19:45:29;;;;;;;6.40;4.03;;;1.10;96.50;;;;;;5056690;28;20028;-74
2022/03/05 19:47:56;;;;;;;6.97;4.20;;;1.20;96.80;;;;;;5050256;28;20048;-73
2022/03/05 19:50:25;;;;;;;7.95;3.90;;;1.10;96.50;;;;;;5050103;28;20029;-75
2022/03/05 19:52:51;;;;;;;8.15;4.05;;;1.20;96.40;;;;;;5051486;28;20086;-77
2022/03/05 19:55:18;;;;;;;7.38;4.00;;;1.10;96.40;;;;;;5061363;28;20028;-75
2022/03/05 19:57:44;;;;;;;7.55;4.18;;;1.10;96.40;;;;;;5062969;28;20024;-74
2022/03/05 20:00:13;;;;;;;6.40;3.75;;;1.10;96.40;;;;;;5061769;28;20029;-74
2022/03/05 20:02:40;;;;;;;8.07;4.30;;;1.10;96.30;;;;;;5059822;28;20028;-77
2022/03/05 20:05:08;;;;;;;5.65;3.55;;;1.10;96.20;;;;;;5061686;28;20029;-75
2022/03/05 20:07:34;;;;;;;6.88;4.07;;;1.10;96.50;;;;;;5062355;28;20025;-74
2022/03/05 20:10:00;;;;;;;5.90;3.78;;;1.10;96.60;;;;;;5063750;28;20073;-75
2022/03/05 20:12:26;;;;;;;6.50;4.03;;;1.20;96.70;;;;;;5067064;28;20362;-74
2022/03/05 20:14:52;;;;;;;6.70;4.13;;;1.20;96.40;;;;;;5070003;28;20028;-77
2022/03/05 20:17:18;;;;;;;7.57;3.95;;;1.10;96.30;;;;;;5069857;28;20036;-74
2022/03/05 20:19:44;;;;;;;7.07;4.20;;;1.20;96.30;;;;;;5069641;28;20465;-76
2022/03/05 20:22:13;;;;;;;8.82;4.60;;;1.10;96.40;;;;;;5070836;28;20493;-76
2022/03/05 20:24:39;;;;;;;7.40;4.47;;;1.10;96.40;;;;;;5069585;28;20382;-74
2022/03/05 20:27:05;;;;;;;10.25;4.95;;;1.10;96.10;;;;;;5069657;28;20052;-75
2022/03/05 20:29:32;;;;;;;8.32;4.45;;;1.10;96.40;;;;;;5069751;28;20147;-73
2022/03/05 20:31:59;;;;;;;7.38;4.40;;;1.10;96.50;;;;;;5070961;28;20039;-76
2022/03/05 20:34:25;;;;;;;7.05;4.38;;;1.10;96.70;;;;;;5069291;28;20025;-76
2022/03/05 20:36:52;;;;;;;8.82;4.53;;;1.10;96.60;;;;;;5069823;28;20033;-75
2022/03/05 20:39:19;;;;;;;6.47;4.13;;;1.10;96.60;;;;;;5070968;28;20085;-74
2022/03/05 20:41:45;;;;;;;9.40;5.78;;;1.10;96.60;;;;;;5086864;28;20083;-78
2022/03/05 20:44:12;;;;;;;6.82;4.28;;;1.10;96.90;;;;;;5071111;28;20082;-73
2022/03/05 20:46:39;;;;;;;6.60;3.90;;;1.10;97.00;;;;;;5070745;28;20048;-74
2022/03/05 20:49:06;;;;;;;6.57;3.90;;;1.10;97.10;;;;;;5070193;28;20035;-75
2022/03/05 20:51:32;;;;;;;6.20;3.90;;;1.10;96.90;;;;;;5069358;28;20036;-73
2022/03/05 20:53:58;;;;;;;5.80;3.60;;;1.10;96.90;;;;;;5069441;28;20040;-74
2022/03/05 20:56:24;;;;;;;6.68;3.65;;;1.10;97.10;;;;;;5069605;28;20082;-80
2022/03/05 20:58:51;;;;;;;6.30;3.72;;;1.10;97.00;;;;;;5070891;28;20037;-74
2022/03/05 21:01:18;;;;;;;6.22;3.85;;;1.10;97.20;;;;;;5069036;28;20020;-77
2022/03/05 21:03:43;;;;;;;5.50;3.25;;;1.10;97.30;;;;;;5069636;28;20055;-76
2022/03/05 21:06:09;;;;;;;6.03;3.78;;;1.00;97.20;;;;;;5069537;28;20462;-75
2022/03/05 21:08:35;;;;;;;6.07;3.88;;;1.00;97.60;;;;;;5068325;28;20028;-74
2022/03/05 21:11:01;;;;;;;5.85;3.60;;;1.00;97.90;;;;;;5069157;28;20033;-74
2022/03/05 21:13:27;;;;;;;7.00;3.83;;;1.00;97.70;;;;;;5072953;28;20063;-76
2022/03/05 21:15:53;;;;;;;5.28;3.53;;;1.00;97.90;;;;;;5074069;28;20455;-74
2022/03/05 21:18:19;;;;;;;6.35;3.88;;;1.00;98.00;;;;;;5074091;28;20055;-77
2022/03/05 21:20:47;;;;;;;6.90;3.88;;;1.00;98.20;;;;;;5072384;28;20028;-74
2022/03/05 21:23:13;;;;;;;6.20;3.65;;;1.00;98.30;;;;;;5064848;28;20036;-75
2022/03/05 21:25:39;;;;;;;7.13;4.28;;;1.00;98.30;;;;;;5072404;28;20079;-74
2022/03/05 21:28:04;;;;;;;7.63;4.00;;;1.00;98.40;;;;;;5072765;28;20450;-73
2022/03/05 21:30:31;;;;;;;7.97;4.22;;;0.90;98.60;;;;;;5072357;28;20748;-74
2022/03/05 21:32:57;;;;;;;6.38;3.88;;;0.90;98.80;;;;;;5074358;28;20051;-74
2022/03/05 21:35:23;;;;;;;6.90;3.72;;;0.90;99.00;;;;;;5072225;28;20390;-75
2022/03/05 21:37:49;;;;;;;6.60;3.80;;;0.90;99.00;;;;;;5072747;28;20074;-74
2022/03/05 21:40:16;;;;;;;8.50;3.97;;;0.90;99.20;;;;;;5073678;28;20580;-76
2022/03/05 21:42:42;;;;;;;6.75;4.30;;;0.90;99.30;;;;;;5072317;28;20074;-74
2022/03/05 21:45:09;;;;;;;7.30;4.03;;;0.90;99.50;;;;;;5073995;28;20032;-73
2022/03/05 21:47:36;;;;;;;7.13;4.28;;;0.90;99.70;;;;;;5072702;28;20032;-75
2022/03/05 21:50:04;;;;;;;6.93;4.20;;;0.80;99.80;;;;;;5072461;28;20162;-74
2022/03/05 21:52:30;;;;;;;6.68;3.80;;;0.80;99.90;;;;;;5073545;28;20466;-75
2022/03/05 21:54:56;;;;;;;7.18;4.00;;;0.90;99.90;;;;;;5071513;28;20047;-77
2022/03/05 21:57:21;;;;;;;6.07;3.70;;;0.80;99.90;;;;;;5072528;28;20037;-75
2022/03/05 21:59:49;;;;;;;7.47;3.85;;;0.90;99.90;;;;;;5072147;28;20112;-74
2022/03/05 22:02:16;;;;;;;6.75;3.90;;;0.90;99.90;;;;;;5073708;28;20488;-76
2022/03/05 22:04:42;;;;;;;6.75;3.88;;;0.90;99.90;;;;;;5073200;28;20029;-74
2022/03/05 22:07:08;;;;;;;6.25;3.58;;;0.90;99.90;;;;;;5073220;28;20040;-74
2022/03/05 22:09:34;;;;;;;6.05;3.78;;;0.80;99.90;;;;;;5073459;28;20033;-73
2022/03/05 22:12:01;;;;;;;6.63;3.83;;;0.80;99.90;;;;;;5072083;28;20119;-73
2022/03/05 22:14:28;;;;;;;7.68;4.00;;;0.80;99.90;;;;;;5073068;28;20377;-75
2022/03/05 22:16:54;;;;;;;6.00;3.38;;;0.80;99.90;;;;;;5072058;28;20119;-75
2022/03/05 22:19:21;;;;;;;6.43;3.60;;;0.80;99.90;;;;;;5071762;28;20115;-75
2022/03/05 22:21:47;;;;;;;6.35;3.58;;;0.80;99.90;;;;;;5072061;28;20035;-74
2022/03/05 22:24:14;;;;;;;6.65;3.60;;;0.80;99.90;;;;;;5071656;28;20016;-76
2022/03/05 22:26:42;;;;;;;7.18;3.88;;;0.80;99.90;;;;;;5071260;28;20135;-75
2022/03/05 22:29:08;;;;;;;6.20;3.78;;;0.80;99.90;;;;;;5071800;28;20060;-74
2022/03/05 22:31:34;;;;;;;6.15;3.70;;;0.80;99.90;;;;;;5071723;28;20055;-74
2022/03/05 22:34:00;;;;;;;7.35;4.18;;;0.80;99.90;;;;;;5072864;28;20031;-74
2022/03/05 22:36:26;;;;;;;8.23;4.40;;;0.80;99.90;;;;;;5072701;28;20037;-74
2022/03/05 22:38:52;;;;;;;6.65;3.97;;;0.70;99.90;;;;;;5072805;28;20044;-75
2022/03/05 22:41:18;;;;;;;7.78;3.83;;;0.70;99.90;;;;;;5071403;28;20028;-73
2022/03/05 22:43:44;;;;;;;6.85;3.72;;;0.70;99.90;;;;;;5071504;28;20032;-74
2022/03/05 22:46:09;;;;;;;6.25;3.28;;;0.70;99.90;;;;;;5071244;28;20037;-73
2022/03/05 22:48:35;;;;;;;6.60;3.50;;;0.70;99.90;;;;;;5072760;28;20370;-73
2022/03/05 22:51:01;;;;;;;7.63;3.65;;;0.70;99.90;;;;;;5071372;28;20140;-74
2022/03/05 22:53:27;;;;;;;6.07;3.53;;;0.70;99.90;;;;;;5071487;28;20115;-74
2022/03/05 22:55:53;;;;;;;5.60;3.13;;;0.70;99.90;;;;;;5071083;28;20032;-74
2022/03/05 22:58:19;;;;;;;5.50;3.50;;;0.60;99.90;;;;;;5071006;28;20078;-75
2022/03/05 23:00:45;;;;;;;6.18;3.17;;;0.60;99.90;;;;;;5072456;28;20029;-73
2022/03/05 23:05:56;;;;;;;4.60;3.10;;;0.70;99.90;;;;;;5071903;28;20040;-73
2022/03/05 23:11:07;;;;;;;5.35;3.25;;;0.70;99.90;;;;;;5072490;28;20149;-72
2022/03/05 23:13:33;;;;;;;5.22;3.30;;;0.60;99.90;;;;;;5071008;28;20033;-74
2022/03/05 23:15:59;;;;;;;6.28;3.40;;;0.60;99.90;;;;;;5070659;28;20446;-73
2022/03/05 23:18:25;;;;;;;6.20;3.47;;;0.60;99.90;;;;;;5072160;28;20032;-76
2022/03/05 23:20:52;;;;;;;6.05;3.22;;;0.60;99.90;;;;;;5070919;28;20131;-73
2022/03/05 23:23:19;;;;;;;5.57;3.40;;;0.60;99.90;;;;;;5072466;28;20493;-74
2022/03/05 23:25:44;;;;;;;4.75;2.95;;;0.50;99.90;;;;;;5069649;28;20048;-73
2022/03/05 23:28:10;;;;;;;5.55;3.30;;;0.60;99.90;;;;;;5070843;28;20461;-74
2022/03/05 23:30:36;;;;;;;5.78;3.20;;;0.60;99.90;;;;;;5072184;28;20038;-71
2022/03/05 23:33:02;;;;;;;5.25;3.40;;;0.60;99.90;;;;;;5070836;28;20032;-73
2022/03/05 23:35:28;;;;;;;5.55;3.28;;;0.60;99.90;;;;;;5070023;28;20389;-75
2022/03/05 23:37:54;;;;;;;4.90;3.03;;;0.60;99.90;;;;;;5071635;28;20063;-73
2022/03/05 23:40:19;;;;;;;5.53;3.30;;;0.60;99.90;;;;;;5071944;28;20048;-73
2022/03/05 23:42:45;;;;;;;5.43;3.00;;;0.60;99.90;;;;;;5071523;28;20028;-74
2022/03/05 23:45:11;;;;;;;6.03;3.03;;;0.60;99.90;;;;;;5071533;28;20035;-72
2022/03/05 23:47:37;;;;;;;6.35;3.55;;;0.60;99.90;;;;;;5070075;28;20111;-74
2022/03/05 23:50:05;;;;;;;7.22;4.45;;;0.60;99.90;;;;;;5070139;28;20056;-73
2022/03/05 23:52:30;;;;;;;7.28;4.03;;;0.60;99.60;;;;;;5070038;28;20386;-73
2022/03/05 23:54:56;;;;;;;6.43;3.60;;;0.60;99.20;;;;;;5071343;28;20028;-72
2022/03/05 23:57:22;;;;;;;5.82;3.45;;;0.60;98.90;;;;;;5071609;28;20032;-73
2022/03/05 23:59:48;;;;;;;7.80;3.95;;;0.60;98.90;;;;;;5071387;28;20078;-76
